sensor_id;sensor_type;location;lat;lon;timestamp;P1;durP1;ratioP1;P2;durP2;ratioP2
14698;SDS011;7439;50.804;4.602;2022-07-23T00:00:31;24.27;;;19.50;;
14698;SDS011;7439;50.804;4.602;2022-07-23T00:02:59;23.53;;;20.40;;
14698;SDS011;7439;50.804;4.602;2022-07-23T00:05:27;23.97;;;19.40;;
14698;SDS011;7439;50.804;4.602;2022-07-23T00:07:54;23.73;;;19.93;;
14698;SDS011;7439;50.804;4.602;2022-07-23T00:10:27;25.47;;;20.43;;
14698;SDS011;7439;50.804;4.602;2022-07-23T00:12:55;22.40;;;20.03;;
14698;SDS011;7439;50.804;4.602;2022-07-23T00:15:22;22.73;;;20.33;;
14698;SDS011;7439;50.804;4.602;2022-07-23T00:17:49;22.43;;;19.27;;
14698;SDS011;7439;50.804;4.602;2022-07-23T00:20:18;20.90;;;18.73;;
14698;SDS011;7439;50.804;4.602;2022-07-23T00:22:46;28.10;;;19.67;;
14698;SDS011;7439;50.804;4.602;2022-07-23T00:25:14;24.30;;;19.37;;
14698;SDS011;7439;50.804;4.602;2022-07-23T00:27:41;19.90;;;17.80;;
14698;SDS011;7439;50.804;4.602;2022-07-23T00:30:09;24.03;;;19.23;;
14698;SDS011;7439;50.804;4.602;2022-07-23T00:32:44;23.43;;;20.10;;
14698;SDS011;7439;50.804;4.602;2022-07-23T00:35:12;20.80;;;18.23;;
14698;SDS011;7439;50.804;4.602;2022-07-23T00:37:41;22.73;;;20.27;;
14698;SDS011;7439;50.804;4.602;2022-07-23T00:40:08;27.10;;;19.90;;
14698;SDS011;7439;50.804;4.602;2022-07-23T00:42:36;33.17;;;22.37;;
14698;SDS011;7439;50.804;4.602;2022-07-23T00:45:03;32.73;;;23.93;;
14698;SDS011;7439;50.804;4.602;2022-07-23T00:47:31;21.93;;;19.50;;
14698;SDS011;7439;50.804;4.602;2022-07-23T00:49:59;25.07;;;22.13;;
14698;SDS011;7439;50.804;4.602;2022-07-23T00:52:26;26.53;;;21.57;;
14698;SDS011;7439;50.804;4.602;2022-07-23T00:54:55;26.30;;;21.37;;
14698;SDS011;7439;50.804;4.602;2022-07-23T00:57:22;28.13;;;23.07;;
14698;SDS011;7439;50.804;4.602;2022-07-23T00:59:50;29.27;;;21.00;;
14698;SDS011;7439;50.804;4.602;2022-07-23T01:02:17;25.83;;;21.33;;
14698;SDS011;7439;50.804;4.602;2022-07-23T01:04:44;23.73;;;20.73;;
14698;SDS011;7439;50.804;4.602;2022-07-23T01:07:11;22.53;;;20.03;;
14698;SDS011;7439;50.804;4.602;2022-07-23T01:09:39;22.93;;;20.50;;
14698;SDS011;7439;50.804;4.602;2022-07-23T01:12:08;23.63;;;21.13;;
14698;SDS011;7439;50.804;4.602;2022-07-23T01:14:36;26.10;;;21.37;;
14698;SDS011;7439;50.804;4.602;2022-07-23T01:17:03;27.80;;;22.07;;
14698;SDS011;7439;50.804;4.602;2022-07-23T01:19:31;26.73;;;22.13;;
14698;SDS011;7439;50.804;4.602;2022-07-23T01:21:58;26.70;;;20.30;;
14698;SDS011;7439;50.804;4.602;2022-07-23T01:24:29;21.97;;;19.60;;
14698;SDS011;7439;50.804;4.602;2022-07-23T01:26:56;25.83;;;20.30;;
14698;SDS011;7439;50.804;4.602;2022-07-23T01:29:23;29.33;;;23.03;;
14698;SDS011;7439;50.804;4.602;2022-07-23T01:31:52;27.50;;;22.80;;
14698;SDS011;7439;50.804;4.602;2022-07-23T01:34:19;26.43;;;20.40;;
14698;SDS011;7439;50.804;4.602;2022-07-23T01:36:47;24.50;;;20.40;;
14698;SDS011;7439;50.804;4.602;2022-07-23T01:39:14;26.53;;;19.20;;
14698;SDS011;7439;50.804;4.602;2022-07-23T01:41:43;23.57;;;18.53;;
14698;SDS011;7439;50.804;4.602;2022-07-23T01:44:10;25.20;;;20.03;;
14698;SDS011;7439;50.804;4.602;2022-07-23T01:46:37;24.60;;;19.87;;
14698;SDS011;7439;50.804;4.602;2022-07-23T01:49:05;25.20;;;21.73;;
14698;SDS011;7439;50.804;4.602;2022-07-23T01:51:32;35.53;;;23.53;;
14698;SDS011;7439;50.804;4.602;2022-07-23T01:54:00;24.70;;;21.40;;
14698;SDS011;7439;50.804;4.602;2022-07-23T01:56:27;26.77;;;21.67;;
14698;SDS011;7439;50.804;4.602;2022-07-23T01:58:55;25.10;;;19.50;;
14698;SDS011;7439;50.804;4.602;2022-07-23T02:01:23;24.03;;;21.13;;
14698;SDS011;7439;50.804;4.602;2022-07-23T02:03:50;26.87;;;20.63;;
14698;SDS011;7439;50.804;4.602;2022-07-23T02:06:17;26.43;;;21.27;;
14698;SDS011;7439;50.804;4.602;2022-07-23T02:08:45;32.13;;;20.03;;
14698;SDS011;7439;50.804;4.602;2022-07-23T02:11:12;27.07;;;20.40;;
14698;SDS011;7439;50.804;4.602;2022-07-23T02:13:39;27.33;;;20.30;;
14698;SDS011;7439;50.804;4.602;2022-07-23T02:16:08;26.23;;;19.53;;
14698;SDS011;7439;50.804;4.602;2022-07-23T02:18:35;22.27;;;19.00;;
14698;SDS011;7439;50.804;4.602;2022-07-23T02:21:03;19.77;;;17.73;;
14698;SDS011;7439;50.804;4.602;2022-07-23T02:23:30;23.63;;;20.53;;
14698;SDS011;7439;50.804;4.602;2022-07-23T02:25:57;22.27;;;19.10;;
14698;SDS011;7439;50.804;4.602;2022-07-23T02:28:24;29.03;;;19.40;;
14698;SDS011;7439;50.804;4.602;2022-07-23T02:30:52;25.73;;;19.00;;
14698;SDS011;7439;50.804;4.602;2022-07-23T02:33:20;21.37;;;18.10;;
14698;SDS011;7439;50.804;4.602;2022-07-23T02:35:48;24.27;;;19.90;;
14698;SDS011;7439;50.804;4.602;2022-07-23T02:38:15;22.93;;;19.30;;
14698;SDS011;7439;50.804;4.602;2022-07-23T02:40:42;21.63;;;17.63;;
14698;SDS011;7439;50.804;4.602;2022-07-23T02:43:10;26.40;;;19.67;;
14698;SDS011;7439;50.804;4.602;2022-07-23T02:45:37;25.27;;;19.33;;
14698;SDS011;7439;50.804;4.602;2022-07-23T02:48:04;24.30;;;17.03;;
14698;SDS011;7439;50.804;4.602;2022-07-23T02:50:33;27.33;;;18.40;;
14698;SDS011;7439;50.804;4.602;2022-07-23T02:53:00;22.23;;;19.00;;
14698;SDS011;7439;50.804;4.602;2022-07-23T02:55:28;21.33;;;19.00;;
14698;SDS011;7439;50.804;4.602;2022-07-23T02:57:56;21.57;;;18.87;;
14698;SDS011;7439;50.804;4.602;2022-07-23T03:00:23;20.63;;;18.40;;
14698;SDS011;7439;50.804;4.602;2022-07-23T03:02:51;25.63;;;18.70;;
14698;SDS011;7439;50.804;4.602;2022-07-23T03:05:18;22.73;;;17.53;;
14698;SDS011;7439;50.804;4.602;2022-07-23T03:07:47;19.90;;;17.27;;
14698;SDS011;7439;50.804;4.602;2022-07-23T03:10:14;21.63;;;18.07;;
14698;SDS011;7439;50.804;4.602;2022-07-23T03:12:41;21.37;;;17.60;;
14698;SDS011;7439;50.804;4.602;2022-07-23T03:15:09;20.60;;;17.47;;
14698;SDS011;7439;50.804;4.602;2022-07-23T03:17:36;22.27;;;17.77;;
14698;SDS011;7439;50.804;4.602;2022-07-23T03:20:04;21.13;;;17.23;;
14698;SDS011;7439;50.804;4.602;2022-07-23T03:22:31;24.90;;;18.87;;
14698;SDS011;7439;50.804;4.602;2022-07-23T03:25:00;25.07;;;20.20;;
14698;SDS011;7439;50.804;4.602;2022-07-23T03:27:28;24.97;;;18.67;;
14698;SDS011;7439;50.804;4.602;2022-07-23T03:29:56;28.40;;;21.63;;
14698;SDS011;7439;50.804;4.602;2022-07-23T03:32:24;22.90;;;18.87;;
14698;SDS011;7439;50.804;4.602;2022-07-23T03:34:52;22.00;;;18.47;;
14698;SDS011;7439;50.804;4.602;2022-07-23T03:37:19;21.07;;;18.77;;
14698;SDS011;7439;50.804;4.602;2022-07-23T03:39:46;22.80;;;15.97;;
14698;SDS011;7439;50.804;4.602;2022-07-23T03:42:15;19.70;;;16.93;;
14698;SDS011;7439;50.804;4.602;2022-07-23T03:44:42;22.23;;;17.73;;
14698;SDS011;7439;50.804;4.602;2022-07-23T03:47:09;24.87;;;17.70;;
14698;SDS011;7439;50.804;4.602;2022-07-23T03:49:37;25.37;;;17.40;;
14698;SDS011;7439;50.804;4.602;2022-07-23T03:52:05;20.67;;;16.70;;
14698;SDS011;7439;50.804;4.602;2022-07-23T03:54:32;22.90;;;18.17;;
14698;SDS011;7439;50.804;4.602;2022-07-23T03:56:59;25.63;;;20.17;;
14698;SDS011;7439;50.804;4.602;2022-07-23T03:59:28;23.57;;;19.17;;
14698;SDS011;7439;50.804;4.602;2022-07-23T04:01:55;21.63;;;17.70;;
14698;SDS011;7439;50.804;4.602;2022-07-23T04:04:22;25.20;;;20.77;;
14698;SDS011;7439;50.804;4.602;2022-07-23T04:06:49;28.73;;;22.83;;
14698;SDS011;7439;50.804;4.602;2022-07-23T04:09:17;26.83;;;20.03;;
14698;SDS011;7439;50.804;4.602;2022-07-23T04:11:44;20.47;;;18.13;;
14698;SDS011;7439;50.804;4.602;2022-07-23T04:14:11;26.10;;;20.57;;
14698;SDS011;7439;50.804;4.602;2022-07-23T04:16:40;26.30;;;20.03;;
14698;SDS011;7439;50.804;4.602;2022-07-23T04:19:08;25.43;;;19.70;;
14698;SDS011;7439;50.804;4.602;2022-07-23T04:21:35;24.53;;;20.67;;
14698;SDS011;7439;50.804;4.602;2022-07-23T04:24:02;21.60;;;19.33;;
14698;SDS011;7439;50.804;4.602;2022-07-23T04:26:30;29.33;;;20.87;;
14698;SDS011;7439;50.804;4.602;2022-07-23T04:28:57;23.17;;;19.27;;
14698;SDS011;7439;50.804;4.602;2022-07-23T04:31:24;24.80;;;19.57;;
14698;SDS011;7439;50.804;4.602;2022-07-23T04:33:53;34.67;;;22.50;;
14698;SDS011;7439;50.804;4.602;2022-07-23T04:36:20;28.17;;;20.77;;
14698;SDS011;7439;50.804;4.602;2022-07-23T04:38:47;27.20;;;21.20;;
14698;SDS011;7439;50.804;4.602;2022-07-23T04:41:15;26.53;;;21.20;;
14698;SDS011;7439;50.804;4.602;2022-07-23T04:43:42;26.90;;;23.20;;
14698;SDS011;7439;50.804;4.602;2022-07-23T04:46:09;27.97;;;22.57;;
14698;SDS011;7439;50.804;4.602;2022-07-23T04:48:36;31.33;;;22.87;;
14698;SDS011;7439;50.804;4.602;2022-07-23T04:51:05;33.60;;;24.57;;
14698;SDS011;7439;50.804;4.602;2022-07-23T04:53:33;30.67;;;23.87;;
14698;SDS011;7439;50.804;4.602;2022-07-23T04:56:00;32.63;;;23.77;;
14698;SDS011;7439;50.804;4.602;2022-07-23T04:58:27;27.77;;;24.70;;
14698;SDS011;7439;50.804;4.602;2022-07-23T05:00:54;30.97;;;24.73;;
14698;SDS011;7439;50.804;4.602;2022-07-23T05:03:22;29.40;;;22.60;;
14698;SDS011;7439;50.804;4.602;2022-07-23T05:05:50;26.10;;;22.03;;
14698;SDS011;7439;50.804;4.602;2022-07-23T05:08:18;29.67;;;24.27;;
14698;SDS011;7439;50.804;4.602;2022-07-23T05:10:46;29.83;;;25.00;;
14698;SDS011;7439;50.804;4.602;2022-07-23T05:13:14;37.20;;;25.33;;
14698;SDS011;7439;50.804;4.602;2022-07-23T05:15:41;33.57;;;25.47;;
14698;SDS011;7439;50.804;4.602;2022-07-23T05:18:09;34.50;;;25.60;;
14698;SDS011;7439;50.804;4.602;2022-07-23T05:20:36;37.53;;;26.60;;
14698;SDS011;7439;50.804;4.602;2022-07-23T05:23:03;30.03;;;25.20;;
14698;SDS011;7439;50.804;4.602;2022-07-23T05:25:32;36.43;;;27.60;;
14698;SDS011;7439;50.804;4.602;2022-07-23T05:27:59;31.40;;;24.90;;
14698;SDS011;7439;50.804;4.602;2022-07-23T05:30:26;33.30;;;26.47;;
14698;SDS011;7439;50.804;4.602;2022-07-23T05:32:54;34.10;;;25.63;;
14698;SDS011;7439;50.804;4.602;2022-07-23T05:35:21;31.13;;;26.57;;
14698;SDS011;7439;50.804;4.602;2022-07-23T05:37:48;32.83;;;26.13;;
14698;SDS011;7439;50.804;4.602;2022-07-23T05:40:17;31.97;;;26.77;;
14698;SDS011;7439;50.804;4.602;2022-07-23T05:42:46;33.73;;;28.60;;
14698;SDS011;7439;50.804;4.602;2022-07-23T05:45:13;31.50;;;28.10;;
14698;SDS011;7439;50.804;4.602;2022-07-23T05:47:41;35.17;;;28.53;;
14698;SDS011;7439;50.804;4.602;2022-07-23T05:50:09;35.13;;;30.83;;
14698;SDS011;7439;50.804;4.602;2022-07-23T05:52:37;32.77;;;29.27;;
14698;SDS011;7439;50.804;4.602;2022-07-23T05:55:05;31.43;;;27.80;;
14698;SDS011;7439;50.804;4.602;2022-07-23T05:57:32;29.47;;;25.77;;
14698;SDS011;7439;50.804;4.602;2022-07-23T06:00:01;29.60;;;26.53;;
14698;SDS011;7439;50.804;4.602;2022-07-23T06:02:29;29.87;;;26.87;;
14698;SDS011;7439;50.804;4.602;2022-07-23T06:04:56;32.97;;;29.67;;
14698;SDS011;7439;50.804;4.602;2022-07-23T06:07:24;30.73;;;27.53;;
14698;SDS011;7439;50.804;4.602;2022-07-23T06:09:51;34.70;;;27.47;;
14698;SDS011;7439;50.804;4.602;2022-07-23T06:12:18;28.53;;;25.63;;
14698;SDS011;7439;50.804;4.602;2022-07-23T06:14:46;31.30;;;26.17;;
14698;SDS011;7439;50.804;4.602;2022-07-23T06:17:16;29.13;;;24.23;;
14698;SDS011;7439;50.804;4.602;2022-07-23T06:19:43;29.90;;;26.23;;
14698;SDS011;7439;50.804;4.602;2022-07-23T06:22:10;30.70;;;26.77;;
14698;SDS011;7439;50.804;4.602;2022-07-23T06:24:38;32.00;;;28.70;;
14698;SDS011;7439;50.804;4.602;2022-07-23T06:27:05;31.23;;;28.13;;
14698;SDS011;7439;50.804;4.602;2022-07-23T06:29:32;31.90;;;28.53;;
14698;SDS011;7439;50.804;4.602;2022-07-23T06:32:00;29.97;;;26.87;;
14698;SDS011;7439;50.804;4.602;2022-07-23T06:34:29;31.30;;;27.67;;
14698;SDS011;7439;50.804;4.602;2022-07-23T06:36:56;29.77;;;26.87;;
14698;SDS011;7439;50.804;4.602;2022-07-23T06:39:23;27.33;;;24.53;;
14698;SDS011;7439;50.804;4.602;2022-07-23T06:41:50;27.17;;;24.43;;
14698;SDS011;7439;50.804;4.602;2022-07-23T06:44:18;26.47;;;23.70;;
14698;SDS011;7439;50.804;4.602;2022-07-23T06:46:45;24.17;;;22.07;;
14698;SDS011;7439;50.804;4.602;2022-07-23T06:49:13;25.00;;;22.47;;
14698;SDS011;7439;50.804;4.602;2022-07-23T06:51:41;22.97;;;20.67;;
14698;SDS011;7439;50.804;4.602;2022-07-23T06:54:08;20.87;;;19.03;;
14698;SDS011;7439;50.804;4.602;2022-07-23T06:56:36;20.23;;;18.50;;
14698;SDS011;7439;50.804;4.602;2022-07-23T06:59:03;20.90;;;19.10;;
14698;SDS011;7439;50.804;4.602;2022-07-23T07:01:31;21.40;;;19.60;;
14698;SDS011;7439;50.804;4.602;2022-07-23T07:03:58;21.93;;;19.90;;
14698;SDS011;7439;50.804;4.602;2022-07-23T07:06:26;21.23;;;19.33;;
14698;SDS011;7439;50.804;4.602;2022-07-23T07:08:54;20.13;;;18.37;;
14698;SDS011;7439;50.804;4.602;2022-07-23T07:11:22;22.43;;;20.03;;
14698;SDS011;7439;50.804;4.602;2022-07-23T07:13:51;19.73;;;17.97;;
14698;SDS011;7439;50.804;4.602;2022-07-23T07:16:18;20.90;;;18.57;;
14698;SDS011;7439;50.804;4.602;2022-07-23T07:18:45;18.67;;;17.10;;
14698;SDS011;7439;50.804;4.602;2022-07-23T07:21:12;17.73;;;16.27;;
14698;SDS011;7439;50.804;4.602;2022-07-23T07:23:40;20.03;;;16.37;;
14698;SDS011;7439;50.804;4.602;2022-07-23T07:26:08;18.70;;;17.10;;
14698;SDS011;7439;50.804;4.602;2022-07-23T07:28:36;17.57;;;16.00;;
14698;SDS011;7439;50.804;4.602;2022-07-23T07:31:03;18.20;;;16.60;;
14698;SDS011;7439;50.804;4.602;2022-07-23T07:33:30;17.97;;;16.13;;
14698;SDS011;7439;50.804;4.602;2022-07-23T07:35:58;19.63;;;16.47;;
14698;SDS011;7439;50.804;4.602;2022-07-23T07:38:25;18.20;;;15.73;;
14698;SDS011;7439;50.804;4.602;2022-07-23T07:40:53;16.67;;;14.80;;
14698;SDS011;7439;50.804;4.602;2022-07-23T07:43:21;18.53;;;16.77;;
14698;SDS011;7439;50.804;4.602;2022-07-23T07:45:49;16.00;;;14.53;;
14698;SDS011;7439;50.804;4.602;2022-07-23T07:48:16;15.37;;;14.17;;
14698;SDS011;7439;50.804;4.602;2022-07-23T07:50:43;16.77;;;15.03;;
14698;SDS011;7439;50.804;4.602;2022-07-23T07:53:11;17.63;;;14.90;;
14698;SDS011;7439;50.804;4.602;2022-07-23T07:55:38;16.93;;;15.43;;
14698;SDS011;7439;50.804;4.602;2022-07-23T07:58:05;18.70;;;14.87;;
14698;SDS011;7439;50.804;4.602;2022-07-23T08:00:34;17.33;;;15.83;;
14698;SDS011;7439;50.804;4.602;2022-07-23T08:03:01;16.67;;;15.27;;
14698;SDS011;7439;50.804;4.602;2022-07-23T08:05:29;17.33;;;15.60;;
14698;SDS011;7439;50.804;4.602;2022-07-23T08:07:57;16.50;;;15.03;;
14698;SDS011;7439;50.804;4.602;2022-07-23T08:10:25;15.73;;;14.33;;
14698;SDS011;7439;50.804;4.602;2022-07-23T08:12:53;16.30;;;14.67;;
14698;SDS011;7439;50.804;4.602;2022-07-23T08:15:21;16.87;;;15.37;;
14698;SDS011;7439;50.804;4.602;2022-07-23T08:17:51;15.70;;;14.10;;
14698;SDS011;7439;50.804;4.602;2022-07-23T08:20:18;15.67;;;14.03;;
14698;SDS011;7439;50.804;4.602;2022-07-23T08:22:47;14.73;;;13.43;;
14698;SDS011;7439;50.804;4.602;2022-07-23T08:25:14;15.57;;;14.10;;
14698;SDS011;7439;50.804;4.602;2022-07-23T08:27:42;14.80;;;13.50;;
14698;SDS011;7439;50.804;4.602;2022-07-23T08:30:10;15.83;;;14.33;;
14698;SDS011;7439;50.804;4.602;2022-07-23T08:32:51;14.67;;;13.17;;
14698;SDS011;7439;50.804;4.602;2022-07-23T08:35:21;13.63;;;12.40;;
14698;SDS011;7439;50.804;4.602;2022-07-23T08:37:48;13.67;;;12.40;;
14698;SDS011;7439;50.804;4.602;2022-07-23T08:40:16;13.70;;;12.43;;
14698;SDS011;7439;50.804;4.602;2022-07-23T08:42:43;13.13;;;11.83;;
14698;SDS011;7439;50.804;4.602;2022-07-23T08:45:11;12.10;;;10.97;;
14698;SDS011;7439;50.804;4.602;2022-07-23T08:47:39;12.07;;;10.97;;
14698;SDS011;7439;50.804;4.602;2022-07-23T08:50:08;12.40;;;11.10;;
14698;SDS011;7439;50.804;4.602;2022-07-23T08:52:37;11.73;;;10.53;;
14698;SDS011;7439;50.804;4.602;2022-07-23T08:55:05;11.40;;;10.30;;
14698;SDS011;7439;50.804;4.602;2022-07-23T08:57:32;10.87;;;9.80;;
14698;SDS011;7439;50.804;4.602;2022-07-23T09:00:00;11.20;;;10.20;;
14698;SDS011;7439;50.804;4.602;2022-07-23T09:02:27;10.57;;;9.57;;
14698;SDS011;7439;50.804;4.602;2022-07-23T09:04:55;11.37;;;10.20;;
14698;SDS011;7439;50.804;4.602;2022-07-23T09:07:23;12.00;;;10.50;;
14698;SDS011;7439;50.804;4.602;2022-07-23T09:09:58;10.67;;;9.67;;
14698;SDS011;7439;50.804;4.602;2022-07-23T09:12:31;10.50;;;9.40;;
14698;SDS011;7439;50.804;4.602;2022-07-23T09:15:00;9.57;;;8.73;;
14698;SDS011;7439;50.804;4.602;2022-07-23T09:17:30;11.93;;;8.17;;
14698;SDS011;7439;50.804;4.602;2022-07-23T09:20:12;10.43;;;7.87;;
14698;SDS011;7439;50.804;4.602;2022-07-23T09:22:41;8.27;;;7.47;;
14698;SDS011;7439;50.804;4.602;2022-07-23T09:25:12;7.43;;;6.73;;
14698;SDS011;7439;50.804;4.602;2022-07-23T09:27:50;7.43;;;6.53;;
14698;SDS011;7439;50.804;4.602;2022-07-23T09:30:19;7.33;;;6.20;;
14698;SDS011;7439;50.804;4.602;2022-07-23T09:35:33;6.80;;;5.67;;
14698;SDS011;7439;50.804;4.602;2022-07-23T09:38:11;6.40;;;5.40;;
14698;SDS011;7439;50.804;4.602;2022-07-23T09:40:38;7.07;;;5.63;;
14698;SDS011;7439;50.804;4.602;2022-07-23T09:43:05;5.87;;;5.03;;
14698;SDS011;7439;50.804;4.602;2022-07-23T09:45:33;5.57;;;5.07;;
14698;SDS011;7439;50.804;4.602;2022-07-23T09:48:10;5.10;;;4.23;;
14698;SDS011;7439;50.804;4.602;2022-07-23T09:50:37;4.40;;;3.97;;
14698;SDS011;7439;50.804;4.602;2022-07-23T09:53:05;6.23;;;3.97;;
14698;SDS011;7439;50.804;4.602;2022-07-23T09:55:34;7.33;;;3.70;;
14698;SDS011;7439;50.804;4.602;2022-07-23T09:58:03;3.80;;;3.50;;
14698;SDS011;7439;50.804;4.602;2022-07-23T10:00:31;4.33;;;4.03;;
14698;SDS011;7439;50.804;4.602;2022-07-23T10:02:59;4.37;;;3.97;;
14698;SDS011;7439;50.804;4.602;2022-07-23T10:05:26;3.90;;;3.50;;
14698;SDS011;7439;50.804;4.602;2022-07-23T10:07:56;4.87;;;4.50;;
14698;SDS011;7439;50.804;4.602;2022-07-23T10:10:24;4.50;;;4.10;;
14698;SDS011;7439;50.804;4.602;2022-07-23T10:12:55;3.93;;;3.63;;
14698;SDS011;7439;50.804;4.602;2022-07-23T10:15:45;5.33;;;4.80;;
14698;SDS011;7439;50.804;4.602;2022-07-23T10:18:12;5.20;;;4.70;;
14698;SDS011;7439;50.804;4.602;2022-07-23T10:20:40;4.23;;;3.87;;
14698;SDS011;7439;50.804;4.602;2022-07-23T10:23:10;4.83;;;4.37;;
14698;SDS011;7439;50.804;4.602;2022-07-23T10:25:39;5.07;;;3.83;;
14698;SDS011;7439;50.804;4.602;2022-07-23T10:28:22;4.40;;;4.00;;
14698;SDS011;7439;50.804;4.602;2022-07-23T10:31:00;4.60;;;3.65;;
14698;SDS011;7439;50.804;4.602;2022-07-23T10:33:32;4.25;;;3.50;;
14698;SDS011;7439;50.804;4.602;2022-07-23T10:36:07;5.37;;;3.60;;
14698;SDS011;7439;50.804;4.602;2022-07-23T10:38:37;3.97;;;3.57;;
14698;SDS011;7439;50.804;4.602;2022-07-23T10:41:04;5.13;;;3.13;;
14698;SDS011;7439;50.804;4.602;2022-07-23T10:43:33;4.60;;;3.53;;
14698;SDS011;7439;50.804;4.602;2022-07-23T10:48:46;3.63;;;3.03;;
14698;SDS011;7439;50.804;4.602;2022-07-23T10:51:33;4.28;;;3.42;;
14698;SDS011;7439;50.804;4.602;2022-07-23T10:54:01;3.50;;;3.20;;
14698;SDS011;7439;50.804;4.602;2022-07-23T10:59:16;4.22;;;3.00;;
14698;SDS011;7439;50.804;4.602;2022-07-23T11:01:43;3.00;;;2.67;;
14698;SDS011;7439;50.804;4.602;2022-07-23T11:04:11;3.30;;;2.90;;
14698;SDS011;7439;50.804;4.602;2022-07-23T11:09:30;3.50;;;3.20;;
14698;SDS011;7439;50.804;4.602;2022-07-23T11:17:27;3.03;;;2.13;;
14698;SDS011;7439;50.804;4.602;2022-07-23T11:22:46;2.73;;;2.27;;
14698;SDS011;7439;50.804;4.602;2022-07-23T11:25:14;2.17;;;2.08;;
14698;SDS011;7439;50.804;4.602;2022-07-23T11:27:55;4.38;;;2.00;;
14698;SDS011;7439;50.804;4.602;2022-07-23T11:30:37;2.55;;;2.35;;
14698;SDS011;7439;50.804;4.602;2022-07-23T11:33:16;2.10;;;2.00;;
14698;SDS011;7439;50.804;4.602;2022-07-23T11:35:44;2.78;;;2.38;;
14698;SDS011;7439;50.804;4.602;2022-07-23T11:38:13;2.88;;;2.60;;
14698;SDS011;7439;50.804;4.602;2022-07-23T11:40:40;3.17;;;2.00;;
14698;SDS011;7439;50.804;4.602;2022-07-23T11:43:08;3.27;;;2.30;;
14698;SDS011;7439;50.804;4.602;2022-07-23T11:45:36;2.33;;;2.10;;
14698;SDS011;7439;50.804;4.602;2022-07-23T11:48:04;4.50;;;2.17;;
14698;SDS011;7439;50.804;4.602;2022-07-23T11:50:33;2.67;;;2.43;;
14698;SDS011;7439;50.804;4.602;2022-07-23T11:53:01;2.30;;;2.03;;
14698;SDS011;7439;50.804;4.602;2022-07-23T11:55:28;3.37;;;2.33;;
14698;SDS011;7439;50.804;4.602;2022-07-23T11:57:56;2.60;;;2.40;;
14698;SDS011;7439;50.804;4.602;2022-07-23T12:00:24;3.00;;;2.40;;
14698;SDS011;7439;50.804;4.602;2022-07-23T12:02:52;3.17;;;2.80;;
14698;SDS011;7439;50.804;4.602;2022-07-23T12:05:20;3.77;;;2.20;;
14698;SDS011;7439;50.804;4.602;2022-07-23T12:07:50;2.30;;;2.10;;
14698;SDS011;7439;50.804;4.602;2022-07-23T12:10:18;2.60;;;2.10;;
14698;SDS011;7439;50.804;4.602;2022-07-23T12:12:47;3.65;;;2.58;;
14698;SDS011;7439;50.804;4.602;2022-07-23T12:15:16;2.50;;;2.30;;
14698;SDS011;7439;50.804;4.602;2022-07-23T12:17:44;3.30;;;2.13;;
14698;SDS011;7439;50.804;4.602;2022-07-23T12:20:13;2.50;;;2.30;;
14698;SDS011;7439;50.804;4.602;2022-07-23T12:22:41;2.95;;;1.90;;
14698;SDS011;7439;50.804;4.602;2022-07-23T12:25:11;2.53;;;2.10;;
14698;SDS011;7439;50.804;4.602;2022-07-23T12:27:38;2.38;;;2.17;;
14698;SDS011;7439;50.804;4.602;2022-07-23T12:30:15;3.28;;;2.60;;
14698;SDS011;7439;50.804;4.602;2022-07-23T12:32:43;4.63;;;2.30;;
14698;SDS011;7439;50.804;4.602;2022-07-23T12:35:10;2.60;;;2.40;;
14698;SDS011;7439;50.804;4.602;2022-07-23T12:37:38;2.60;;;2.40;;
14698;SDS011;7439;50.804;4.602;2022-07-23T12:40:21;3.30;;;2.30;;
14698;SDS011;7439;50.804;4.602;2022-07-23T12:42:50;2.28;;;1.98;;
14698;SDS011;7439;50.804;4.602;2022-07-23T12:45:18;2.33;;;2.20;;
14698;SDS011;7439;50.804;4.602;2022-07-23T12:50:34;4.05;;;2.50;;
14698;SDS011;7439;50.804;4.602;2022-07-23T12:53:03;3.05;;;2.40;;
14698;SDS011;7439;50.804;4.602;2022-07-23T12:55:31;4.10;;;2.63;;
14698;SDS011;7439;50.804;4.602;2022-07-23T12:58:02;2.63;;;2.43;;
14698;SDS011;7439;50.804;4.602;2022-07-23T13:00:30;3.63;;;2.83;;
14698;SDS011;7439;50.804;4.602;2022-07-23T13:02:57;3.15;;;2.45;;
14698;SDS011;7439;50.804;4.602;2022-07-23T13:05:25;3.13;;;2.80;;
14698;SDS011;7439;50.804;4.602;2022-07-23T13:07:52;2.85;;;2.63;;
14698;SDS011;7439;50.804;4.602;2022-07-23T13:10:19;3.05;;;2.45;;
14698;SDS011;7439;50.804;4.602;2022-07-23T13:12:48;6.95;;;2.85;;
14698;SDS011;7439;50.804;4.602;2022-07-23T13:15:15;3.03;;;2.60;;
14698;SDS011;7439;50.804;4.602;2022-07-23T13:17:42;2.63;;;2.42;;
14698;SDS011;7439;50.804;4.602;2022-07-23T13:20:11;3.45;;;3.13;;
14698;SDS011;7439;50.804;4.602;2022-07-23T13:22:38;2.50;;;2.30;;
14698;SDS011;7439;50.804;4.602;2022-07-23T13:25:06;2.90;;;2.60;;
14698;SDS011;7439;50.804;4.602;2022-07-23T13:27:33;3.92;;;2.67;;
14698;SDS011;7439;50.804;4.602;2022-07-23T13:30:02;3.63;;;2.93;;
14698;SDS011;7439;50.804;4.602;2022-07-23T13:32:30;3.10;;;2.90;;
14698;SDS011;7439;50.804;4.602;2022-07-23T13:34:57;3.38;;;2.33;;
14698;SDS011;7439;50.804;4.602;2022-07-23T13:37:24;3.05;;;2.72;;
14698;SDS011;7439;50.804;4.602;2022-07-23T13:39:52;3.40;;;3.08;;
14698;SDS011;7439;50.804;4.602;2022-07-23T13:42:19;5.75;;;2.75;;
14698;SDS011;7439;50.804;4.602;2022-07-23T13:44:46;3.20;;;2.90;;
14698;SDS011;7439;50.804;4.602;2022-07-23T13:47:15;5.50;;;3.30;;
14698;SDS011;7439;50.804;4.602;2022-07-23T13:49:42;5.03;;;3.33;;
14698;SDS011;7439;50.804;4.602;2022-07-23T13:52:09;5.57;;;3.13;;
14698;SDS011;7439;50.804;4.602;2022-07-23T13:54:37;6.80;;;3.40;;
14698;SDS011;7439;50.804;4.602;2022-07-23T13:57:04;3.63;;;3.37;;
14698;SDS011;7439;50.804;4.602;2022-07-23T13:59:31;4.50;;;3.37;;
14698;SDS011;7439;50.804;4.602;2022-07-23T14:01:59;4.00;;;3.60;;
14698;SDS011;7439;50.804;4.602;2022-07-23T14:04:27;3.80;;;3.33;;
14698;SDS011;7439;50.804;4.602;2022-07-23T14:06:54;4.07;;;3.40;;
14698;SDS011;7439;50.804;4.602;2022-07-23T14:09:22;3.43;;;3.13;;
14698;SDS011;7439;50.804;4.602;2022-07-23T14:11:49;3.43;;;3.20;;
14698;SDS011;7439;50.804;4.602;2022-07-23T14:14:17;4.63;;;3.17;;
14698;SDS011;7439;50.804;4.602;2022-07-23T14:16:44;5.37;;;3.40;;
14698;SDS011;7439;50.804;4.602;2022-07-23T14:19:12;3.70;;;3.40;;
14698;SDS011;7439;50.804;4.602;2022-07-23T14:21:40;3.43;;;3.13;;
14698;SDS011;7439;50.804;4.602;2022-07-23T14:24:08;3.30;;;3.00;;
14698;SDS011;7439;50.804;4.602;2022-07-23T14:26:35;3.40;;;3.10;;
14698;SDS011;7439;50.804;4.602;2022-07-23T14:29:02;3.50;;;3.30;;
14698;SDS011;7439;50.804;4.602;2022-07-23T14:31:30;3.13;;;2.93;;
14698;SDS011;7439;50.804;4.602;2022-07-23T14:33:57;3.50;;;3.20;;
14698;SDS011;7439;50.804;4.602;2022-07-23T14:36:24;3.70;;;3.37;;
14698;SDS011;7439;50.804;4.602;2022-07-23T14:38:54;4.43;;;4.03;;
14698;SDS011;7439;50.804;4.602;2022-07-23T14:41:21;4.10;;;3.67;;
14698;SDS011;7439;50.804;4.602;2022-07-23T14:43:48;4.17;;;3.77;;
14698;SDS011;7439;50.804;4.602;2022-07-23T14:46:16;4.10;;;3.70;;
14698;SDS011;7439;50.804;4.602;2022-07-23T14:48:43;4.17;;;3.80;;
14698;SDS011;7439;50.804;4.602;2022-07-23T14:51:11;4.20;;;3.80;;
14698;SDS011;7439;50.804;4.602;2022-07-23T14:53:38;4.27;;;3.73;;
14698;SDS011;7439;50.804;4.602;2022-07-23T14:56:07;4.17;;;3.80;;
14698;SDS011;7439;50.804;4.602;2022-07-23T14:58:34;5.07;;;4.50;;
14698;SDS011;7439;50.804;4.602;2022-07-23T15:01:01;4.77;;;4.27;;
14698;SDS011;7439;50.804;4.602;2022-07-23T15:03:29;4.10;;;3.80;;
14698;SDS011;7439;50.804;4.602;2022-07-23T15:05:56;4.47;;;4.00;;
14698;SDS011;7439;50.804;4.602;2022-07-23T15:08:23;4.23;;;3.83;;
14698;SDS011;7439;50.804;4.602;2022-07-23T15:10:51;4.37;;;3.97;;
14698;SDS011;7439;50.804;4.602;2022-07-23T15:13:19;4.70;;;4.27;;